sensor_id;sensor_type;location;lat;lon;timestamp;P1;durP1;ratioP1;P2;durP2;ratioP2
11197;SDS011;5655;48.744;9.162;2023-04-15T00:01:18;3.92;;;2.47;;
11197;SDS011;5655;48.744;9.162;2023-04-15T00:03:44;3.75;;;2.70;;
11197;SDS011;5655;48.744;9.162;2023-04-15T00:06:10;5.90;;;2.53;;
11197;SDS011;5655;48.744;9.162;2023-04-15T00:08:35;7.57;;;3.13;;
11197;SDS011;5655;48.744;9.162;2023-04-15T00:11:00;6.50;;;2.80;;
11197;SDS011;5655;48.744;9.162;2023-04-15T00:13:29;3.97;;;2.83;;
11197;SDS011;5655;48.744;9.162;2023-04-15T00:15:54;3.92;;;2.90;;
11197;SDS011;5655;48.744;9.162;2023-04-15T00:18:20;6.05;;;2.83;;
11197;SDS011;5655;48.744;9.162;2023-04-15T00:20:45;6.15;;;2.70;;
11197;SDS011;5655;48.744;9.162;2023-04-15T00:23:11;6.15;;;2.72;;
11197;SDS011;5655;48.744;9.162;2023-04-15T00:25:36;3.55;;;2.53;;
11197;SDS011;5655;48.744;9.162;2023-04-15T00:28:02;3.45;;;2.38;;
11197;SDS011;5655;48.744;9.162;2023-04-15T00:30:27;5.72;;;2.67;;
11197;SDS011;5655;48.744;9.162;2023-04-15T00:32:53;8.02;;;3.15;;
11197;SDS011;5655;48.744;9.162;2023-04-15T00:35:18;5.07;;;2.60;;
11197;SDS011;5655;48.744;9.162;2023-04-15T00:37:43;8.02;;;2.80;;
11197;SDS011;5655;48.744;9.162;2023-04-15T00:40:10;4.75;;;2.40;;
11197;SDS011;5655;48.744;9.162;2023-04-15T00:42:36;7.53;;;2.78;;
11197;SDS011;5655;48.744;9.162;2023-04-15T00:45:03;6.18;;;3.22;;
11197;SDS011;5655;48.744;9.162;2023-04-15T00:47:29;5.45;;;2.72;;
11197;SDS011;5655;48.744;9.162;2023-04-15T00:49:57;5.07;;;3.03;;
11197;SDS011;5655;48.744;9.162;2023-04-15T00:52:23;5.60;;;2.95;;
11197;SDS011;5655;48.744;9.162;2023-04-15T00:54:48;6.43;;;3.38;;
11197;SDS011;5655;48.744;9.162;2023-04-15T00:57:15;8.98;;;3.15;;
11197;SDS011;5655;48.744;9.162;2023-04-15T00:59:40;9.10;;;3.47;;
11197;SDS011;5655;48.744;9.162;2023-04-15T01:02:06;6.55;;;3.60;;
11197;SDS011;5655;48.744;9.162;2023-04-15T01:04:32;5.85;;;2.92;;
11197;SDS011;5655;48.744;9.162;2023-04-15T01:06:57;6.22;;;3.10;;
11197;SDS011;5655;48.744;9.162;2023-04-15T01:09:22;8.93;;;3.15;;
11197;SDS011;5655;48.744;9.162;2023-04-15T01:11:48;6.05;;;2.90;;
11197;SDS011;5655;48.744;9.162;2023-04-15T01:14:13;5.22;;;3.13;;
11197;SDS011;5655;48.744;9.162;2023-04-15T01:16:39;5.30;;;2.92;;
11197;SDS011;5655;48.744;9.162;2023-04-15T01:19:08;4.03;;;2.70;;
11197;SDS011;5655;48.744;9.162;2023-04-15T01:21:37;8.73;;;3.00;;
11197;SDS011;5655;48.744;9.162;2023-04-15T01:24:05;5.55;;;2.83;;
11197;SDS011;5655;48.744;9.162;2023-04-15T01:26:33;5.85;;;3.13;;
11197;SDS011;5655;48.744;9.162;2023-04-15T01:29:03;6.97;;;2.95;;
11197;SDS011;5655;48.744;9.162;2023-04-15T01:31:28;5.85;;;2.70;;
11197;SDS011;5655;48.744;9.162;2023-04-15T01:33:53;6.78;;;3.03;;
11197;SDS011;5655;48.744;9.162;2023-04-15T01:36:19;6.78;;;3.10;;
11197;SDS011;5655;48.744;9.162;2023-04-15T01:38:44;5.30;;;3.63;;
11197;SDS011;5655;48.744;9.162;2023-04-15T01:41:10;4.95;;;2.97;;
11197;SDS011;5655;48.744;9.162;2023-04-15T01:43:35;8.90;;;3.10;;
11197;SDS011;5655;48.744;9.162;2023-04-15T01:46:01;7.43;;;3.10;;
11197;SDS011;5655;48.744;9.162;2023-04-15T01:48:27;8.07;;;3.13;;
11197;SDS011;5655;48.744;9.162;2023-04-15T01:50:53;4.72;;;2.58;;
11197;SDS011;5655;48.744;9.162;2023-04-15T01:53:19;4.65;;;2.92;;
11197;SDS011;5655;48.744;9.162;2023-04-15T01:55:44;6.50;;;2.83;;
11197;SDS011;5655;48.744;9.162;2023-04-15T01:58:10;4.60;;;2.90;;
11197;SDS011;5655;48.744;9.162;2023-04-15T02:00:35;2.83;;;2.53;;
11197;SDS011;5655;48.744;9.162;2023-04-15T02:03:00;6.65;;;2.67;;
11197;SDS011;5655;48.744;9.162;2023-04-15T02:05:26;4.00;;;2.55;;
11197;SDS011;5655;48.744;9.162;2023-04-15T02:07:51;6.30;;;3.03;;
11197;SDS011;5655;48.744;9.162;2023-04-15T02:10:17;8.02;;;3.22;;
11197;SDS011;5655;48.744;9.162;2023-04-15T02:12:43;7.78;;;3.00;;
11197;SDS011;5655;48.744;9.162;2023-04-15T02:15:08;6.47;;;3.10;;
11197;SDS011;5655;48.744;9.162;2023-04-15T02:17:34;3.90;;;2.63;;
11197;SDS011;5655;48.744;9.162;2023-04-15T02:20:00;4.72;;;2.88;;
11197;SDS011;5655;48.744;9.162;2023-04-15T02:22:26;5.18;;;2.70;;
11197;SDS011;5655;48.744;9.162;2023-04-15T02:24:51;7.68;;;3.08;;
11197;SDS011;5655;48.744;9.162;2023-04-15T02:27:17;9.10;;;3.42;;
11197;SDS011;5655;48.744;9.162;2023-04-15T02:29:43;9.65;;;3.53;;
11197;SDS011;5655;48.744;9.162;2023-04-15T02:32:09;5.32;;;3.17;;
11197;SDS011;5655;48.744;9.162;2023-04-15T02:34:36;7.40;;;3.80;;
11197;SDS011;5655;48.744;9.162;2023-04-15T02:37:03;6.13;;;3.80;;
11197;SDS011;5655;48.744;9.162;2023-04-15T02:39:29;6.68;;;3.47;;
11197;SDS011;5655;48.744;9.162;2023-04-15T02:41:54;7.25;;;3.80;;
11197;SDS011;5655;48.744;9.162;2023-04-15T02:44:20;7.72;;;3.70;;
11197;SDS011;5655;48.744;9.162;2023-04-15T02:46:47;7.93;;;3.03;;
11197;SDS011;5655;48.744;9.162;2023-04-15T02:49:16;5.75;;;3.13;;
11197;SDS011;5655;48.744;9.162;2023-04-15T02:51:41;6.15;;;3.33;;
11197;SDS011;5655;48.744;9.162;2023-04-15T02:54:06;8.77;;;3.90;;
11197;SDS011;5655;48.744;9.162;2023-04-15T02:56:32;5.13;;;3.28;;
11197;SDS011;5655;48.744;9.162;2023-04-15T02:58:58;4.18;;;2.63;;
11197;SDS011;5655;48.744;9.162;2023-04-15T03:01:23;3.95;;;3.03;;
11197;SDS011;5655;48.744;9.162;2023-04-15T03:03:48;7.40;;;2.97;;
11197;SDS011;5655;48.744;9.162;2023-04-15T03:06:14;6.43;;;3.03;;
11197;SDS011;5655;48.744;9.162;2023-04-15T03:08:39;3.72;;;2.70;;
11197;SDS011;5655;48.744;9.162;2023-04-15T03:11:05;5.28;;;2.97;;
11197;SDS011;5655;48.744;9.162;2023-04-15T03:13:31;5.30;;;2.88;;
11197;SDS011;5655;48.744;9.162;2023-04-15T03:15:57;7.65;;;2.67;;
11197;SDS011;5655;48.744;9.162;2023-04-15T03:18:22;4.45;;;2.45;;
11197;SDS011;5655;48.744;9.162;2023-04-15T03:20:47;5.53;;;2.67;;
11197;SDS011;5655;48.744;9.162;2023-04-15T03:23:13;6.00;;;2.72;;
11197;SDS011;5655;48.744;9.162;2023-04-15T03:25:38;3.85;;;2.40;;
11197;SDS011;5655;48.744;9.162;2023-04-15T03:28:03;7.00;;;2.17;;
11197;SDS011;5655;48.744;9.162;2023-04-15T03:30:29;4.68;;;2.60;;
11197;SDS011;5655;48.744;9.162;2023-04-15T03:32:54;4.20;;;2.75;;
11197;SDS011;5655;48.744;9.162;2023-04-15T03:35:19;4.68;;;2.67;;
11197;SDS011;5655;48.744;9.162;2023-04-15T03:37:45;5.15;;;2.88;;
11197;SDS011;5655;48.744;9.162;2023-04-15T03:40:10;3.15;;;1.92;;
11197;SDS011;5655;48.744;9.162;2023-04-15T03:42:36;4.63;;;2.67;;
11197;SDS011;5655;48.744;9.162;2023-04-15T03:45:01;3.67;;;1.92;;
11197;SDS011;5655;48.744;9.162;2023-04-15T03:47:27;4.43;;;2.03;;
11197;SDS011;5655;48.744;9.162;2023-04-15T03:49:52;5.00;;;2.40;;
11197;SDS011;5655;48.744;9.162;2023-04-15T03:52:18;4.35;;;2.35;;
11197;SDS011;5655;48.744;9.162;2023-04-15T03:54:43;2.95;;;2.08;;
11197;SDS011;5655;48.744;9.162;2023-04-15T03:57:08;4.22;;;2.38;;
11197;SDS011;5655;48.744;9.162;2023-04-15T03:59:33;5.53;;;2.10;;
11197;SDS011;5655;48.744;9.162;2023-04-15T04:01:59;5.68;;;2.78;;
11197;SDS011;5655;48.744;9.162;2023-04-15T04:04:24;5.68;;;2.75;;
11197;SDS011;5655;48.744;9.162;2023-04-15T04:06:50;3.35;;;2.53;;
11197;SDS011;5655;48.744;9.162;2023-04-15T04:09:15;9.82;;;3.03;;
11197;SDS011;5655;48.744;9.162;2023-04-15T04:11:40;3.97;;;2.80;;
11197;SDS011;5655;48.744;9.162;2023-04-15T04:14:05;5.53;;;2.53;;
11197;SDS011;5655;48.744;9.162;2023-04-15T04:16:31;6.10;;;2.67;;
11197;SDS011;5655;48.744;9.162;2023-04-15T04:18:56;4.07;;;2.15;;
11197;SDS011;5655;48.744;9.162;2023-04-15T04:21:21;6.18;;;2.58;;
11197;SDS011;5655;48.744;9.162;2023-04-15T04:23:47;6.88;;;2.28;;
11197;SDS011;5655;48.744;9.162;2023-04-15T04:26:12;9.77;;;2.97;;
11197;SDS011;5655;48.744;9.162;2023-04-15T04:28:37;3.38;;;2.33;;
11197;SDS011;5655;48.744;9.162;2023-04-15T04:31:06;7.68;;;2.90;;
11197;SDS011;5655;48.744;9.162;2023-04-15T04:33:32;5.45;;;2.80;;
11197;SDS011;5655;48.744;9.162;2023-04-15T04:35:57;5.35;;;2.38;;
11197;SDS011;5655;48.744;9.162;2023-04-15T04:38:23;4.05;;;2.67;;
11197;SDS011;5655;48.744;9.162;2023-04-15T04:40:48;4.05;;;2.58;;
11197;SDS011;5655;48.744;9.162;2023-04-15T04:43:14;3.90;;;2.55;;
11197;SDS011;5655;48.744;9.162;2023-04-15T04:45:40;4.03;;;2.90;;
11197;SDS011;5655;48.744;9.162;2023-04-15T04:48:05;7.68;;;3.10;;
11197;SDS011;5655;48.744;9.162;2023-04-15T04:50:32;5.25;;;3.22;;
11197;SDS011;5655;48.744;9.162;2023-04-15T04:52:59;5.63;;;2.58;;
11197;SDS011;5655;48.744;9.162;2023-04-15T04:55:24;4.03;;;2.70;;
11197;SDS011;5655;48.744;9.162;2023-04-15T04:57:50;5.35;;;2.90;;
11197;SDS011;5655;48.744;9.162;2023-04-15T05:00:15;5.10;;;2.75;;
11197;SDS011;5655;48.744;9.162;2023-04-15T05:02:41;8.15;;;3.00;;
11197;SDS011;5655;48.744;9.162;2023-04-15T05:05:08;6.50;;;2.78;;
11197;SDS011;5655;48.744;9.162;2023-04-15T05:07:34;8.48;;;3.13;;
11197;SDS011;5655;48.744;9.162;2023-04-15T05:09:59;5.20;;;2.55;;
11197;SDS011;5655;48.744;9.162;2023-04-15T05:12:25;4.72;;;2.50;;
11197;SDS011;5655;48.744;9.162;2023-04-15T05:14:50;4.25;;;2.90;;
11197;SDS011;5655;48.744;9.162;2023-04-15T05:17:16;4.05;;;2.80;;
11197;SDS011;5655;48.744;9.162;2023-04-15T05:19:41;6.15;;;3.03;;
11197;SDS011;5655;48.744;9.162;2023-04-15T05:22:06;8.55;;;3.50;;
11197;SDS011;5655;48.744;9.162;2023-04-15T05:24:32;5.55;;;3.28;;
11197;SDS011;5655;48.744;9.162;2023-04-15T05:26:57;6.05;;;3.20;;
11197;SDS011;5655;48.744;9.162;2023-04-15T05:29:22;5.40;;;3.05;;
11197;SDS011;5655;48.744;9.162;2023-04-15T05:31:48;6.85;;;3.28;;
11197;SDS011;5655;48.744;9.162;2023-04-15T05:34:13;4.30;;;2.75;;
11197;SDS011;5655;48.744;9.162;2023-04-15T05:36:40;4.68;;;3.03;;
11197;SDS011;5655;48.744;9.162;2023-04-15T05:39:06;7.47;;;3.15;;
11197;SDS011;5655;48.744;9.162;2023-04-15T05:41:31;4.57;;;3.00;;
11197;SDS011;5655;48.744;9.162;2023-04-15T05:43:56;7.07;;;3.90;;
11197;SDS011;5655;48.744;9.162;2023-04-15T05:46:22;7.55;;;3.67;;
11197;SDS011;5655;48.744;9.162;2023-04-15T05:48:47;8.45;;;3.95;;
11197;SDS011;5655;48.744;9.162;2023-04-15T05:51:12;12.40;;;4.32;;
11197;SDS011;5655;48.744;9.162;2023-04-15T05:53:38;8.80;;;4.30;;
11197;SDS011;5655;48.744;9.162;2023-04-15T05:56:05;12.27;;;4.25;;
11197;SDS011;5655;48.744;9.162;2023-04-15T05:58:30;6.63;;;3.97;;
11197;SDS011;5655;48.744;9.162;2023-04-15T06:00:55;9.20;;;4.32;;
11197;SDS011;5655;48.744;9.162;2023-04-15T06:03:21;6.10;;;4.53;;
11197;SDS011;5655;48.744;9.162;2023-04-15T06:05:46;11.15;;;4.47;;
11197;SDS011;5655;48.744;9.162;2023-04-15T06:08:12;9.45;;;4.63;;
11197;SDS011;5655;48.744;9.162;2023-04-15T06:10:37;12.43;;;5.57;;
11197;SDS011;5655;48.744;9.162;2023-04-15T06:13:03;10.38;;;5.22;;
11197;SDS011;5655;48.744;9.162;2023-04-15T06:15:28;8.30;;;4.53;;
11197;SDS011;5655;48.744;9.162;2023-04-15T06:17:54;8.63;;;4.90;;
11197;SDS011;5655;48.744;9.162;2023-04-15T06:20:19;9.55;;;4.75;;
11197;SDS011;5655;48.744;9.162;2023-04-15T06:22:45;8.38;;;4.40;;
11197;SDS011;5655;48.744;9.162;2023-04-15T06:25:10;8.30;;;4.43;;
11197;SDS011;5655;48.744;9.162;2023-04-15T06:27:35;5.32;;;3.83;;
11197;SDS011;5655;48.744;9.162;2023-04-15T06:30:01;8.13;;;4.03;;
11197;SDS011;5655;48.744;9.162;2023-04-15T06:32:26;8.13;;;3.33;;
11197;SDS011;5655;48.744;9.162;2023-04-15T06:34:52;9.02;;;3.53;;
11197;SDS011;5655;48.744;9.162;2023-04-15T06:37:17;11.35;;;3.22;;
11197;SDS011;5655;48.744;9.162;2023-04-15T06:39:42;4.38;;;2.95;;
11197;SDS011;5655;48.744;9.162;2023-04-15T06:42:08;7.20;;;2.85;;
11197;SDS011;5655;48.744;9.162;2023-04-15T06:44:35;4.28;;;2.35;;
11197;SDS011;5655;48.744;9.162;2023-04-15T06:47:01;5.35;;;2.08;;
11197;SDS011;5655;48.744;9.162;2023-04-15T06:49:26;7.45;;;2.22;;
11197;SDS011;5655;48.744;9.162;2023-04-15T06:51:52;3.30;;;2.28;;
11197;SDS011;5655;48.744;9.162;2023-04-15T06:54:17;6.82;;;2.42;;
11197;SDS011;5655;48.744;9.162;2023-04-15T06:56:42;8.85;;;2.85;;
11197;SDS011;5655;48.744;9.162;2023-04-15T06:59:08;3.35;;;2.25;;
11197;SDS011;5655;48.744;9.162;2023-04-15T07:01:33;6.95;;;2.03;;
11197;SDS011;5655;48.744;9.162;2023-04-15T07:03:58;3.42;;;1.73;;
11197;SDS011;5655;48.744;9.162;2023-04-15T07:06:24;4.00;;;2.30;;
11197;SDS011;5655;48.744;9.162;2023-04-15T07:08:50;6.32;;;2.30;;
11197;SDS011;5655;48.744;9.162;2023-04-15T07:11:15;5.05;;;1.80;;
11197;SDS011;5655;48.744;9.162;2023-04-15T07:13:41;3.97;;;2.42;;
11197;SDS011;5655;48.744;9.162;2023-04-15T07:16:06;4.57;;;2.08;;
11197;SDS011;5655;48.744;9.162;2023-04-15T07:18:32;7.82;;;4.32;;
11197;SDS011;5655;48.744;9.162;2023-04-15T07:20:58;8.00;;;4.60;;
11197;SDS011;5655;48.744;9.162;2023-04-15T07:23:23;5.75;;;4.32;;
11197;SDS011;5655;48.744;9.162;2023-04-15T07:25:49;7.35;;;4.55;;
11197;SDS011;5655;48.744;9.162;2023-04-15T07:28:15;8.60;;;4.40;;
11197;SDS011;5655;48.744;9.162;2023-04-15T07:30:40;8.45;;;4.40;;
11197;SDS011;5655;48.744;9.162;2023-04-15T07:33:06;8.07;;;2.42;;
11197;SDS011;5655;48.744;9.162;2023-04-15T07:35:31;5.53;;;1.92;;
11197;SDS011;5655;48.744;9.162;2023-04-15T07:37:57;6.07;;;1.98;;
11197;SDS011;5655;48.744;9.162;2023-04-15T07:40:22;5.22;;;1.80;;
11197;SDS011;5655;48.744;9.162;2023-04-15T07:42:48;3.97;;;2.03;;
11197;SDS011;5655;48.744;9.162;2023-04-15T07:45:13;3.65;;;1.83;;
11197;SDS011;5655;48.744;9.162;2023-04-15T07:47:39;5.55;;;2.10;;
11197;SDS011;5655;48.744;9.162;2023-04-15T07:50:06;6.13;;;2.22;;
11197;SDS011;5655;48.744;9.162;2023-04-15T07:52:31;6.35;;;2.15;;
11197;SDS011;5655;48.744;9.162;2023-04-15T07:55:03;5.60;;;2.60;;
11197;SDS011;5655;48.744;9.162;2023-04-15T07:57:32;8.40;;;2.97;;
11197;SDS011;5655;48.744;9.162;2023-04-15T07:59:59;7.25;;;3.55;;
11197;SDS011;5655;48.744;9.162;2023-04-15T08:02:25;11.15;;;4.05;;
11197;SDS011;5655;48.744;9.162;2023-04-15T08:04:50;6.10;;;3.55;;
11197;SDS011;5655;48.744;9.162;2023-04-15T08:07:17;6.63;;;3.60;;
11197;SDS011;5655;48.744;9.162;2023-04-15T08:09:42;9.93;;;4.40;;
11197;SDS011;5655;48.744;9.162;2023-04-15T08:12:07;7.13;;;4.15;;
11197;SDS011;5655;48.744;9.162;2023-04-15T08:14:36;7.15;;;3.22;;
11197;SDS011;5655;48.744;9.162;2023-04-15T08:17:01;8.57;;;3.78;;
11197;SDS011;5655;48.744;9.162;2023-04-15T08:19:28;6.43;;;2.85;;
11197;SDS011;5655;48.744;9.162;2023-04-15T08:21:53;9.75;;;3.15;;
11197;SDS011;5655;48.744;9.162;2023-04-15T08:24:19;6.43;;;3.33;;
11197;SDS011;5655;48.744;9.162;2023-04-15T08:26:44;5.60;;;2.80;;
11197;SDS011;5655;48.744;9.162;2023-04-15T08:29:11;5.78;;;2.70;;
11197;SDS011;5655;48.744;9.162;2023-04-15T08:31:36;6.88;;;2.83;;
11197;SDS011;5655;48.744;9.162;2023-04-15T08:34:02;6.70;;;2.70;;
11197;SDS011;5655;48.744;9.162;2023-04-15T08:36:27;3.65;;;2.58;;
11197;SDS011;5655;48.744;9.162;2023-04-15T08:38:53;5.55;;;2.70;;
11197;SDS011;5655;48.744;9.162;2023-04-15T08:41:21;5.05;;;2.78;;
11197;SDS011;5655;48.744;9.162;2023-04-15T08:44:06;4.75;;;3.05;;
11197;SDS011;5655;48.744;9.162;2023-04-15T08:46:32;4.88;;;2.97;;
11197;SDS011;5655;48.744;9.162;2023-04-15T08:49:02;4.78;;;2.70;;
11197;SDS011;5655;48.744;9.162;2023-04-15T08:51:28;4.88;;;2.17;;
11197;SDS011;5655;48.744;9.162;2023-04-15T08:53:54;4.10;;;2.70;;
11197;SDS011;5655;48.744;9.162;2023-04-15T08:56:22;6.45;;;3.00;;
11197;SDS011;5655;48.744;9.162;2023-04-15T08:58:49;4.43;;;2.42;;
11197;SDS011;5655;48.744;9.162;2023-04-15T09:01:14;5.95;;;2.70;;
11197;SDS011;5655;48.744;9.162;2023-04-15T09:03:40;4.22;;;2.20;;
11197;SDS011;5655;48.744;9.162;2023-04-15T09:06:06;6.10;;;2.42;;
11197;SDS011;5655;48.744;9.162;2023-04-15T09:08:32;5.43;;;2.50;;
11197;SDS011;5655;48.744;9.162;2023-04-15T09:11:01;3.72;;;2.08;;
11197;SDS011;5655;48.744;9.162;2023-04-15T09:13:27;3.53;;;1.80;;
11197;SDS011;5655;48.744;9.162;2023-04-15T09:15:54;4.65;;;1.92;;
11197;SDS011;5655;48.744;9.162;2023-04-15T09:20:55;3.35;;;2.10;;
11197;SDS011;5655;48.744;9.162;2023-04-15T09:23:29;4.18;;;2.30;;
11197;SDS011;5655;48.744;9.162;2023-04-15T09:25:55;4.03;;;2.42;;
11197;SDS011;5655;48.744;9.162;2023-04-15T09:28:24;3.85;;;2.67;;
11197;SDS011;5655;48.744;9.162;2023-04-15T09:30:51;3.55;;;2.22;;
11197;SDS011;5655;48.744;9.162;2023-04-15T09:33:19;3.90;;;2.20;;
11197;SDS011;5655;48.744;9.162;2023-04-15T09:36:06;4.93;;;2.35;;
11197;SDS011;5655;48.744;9.162;2023-04-15T09:38:31;4.47;;;1.95;;
11197;SDS011;5655;48.744;9.162;2023-04-15T09:40:56;3.72;;;1.80;;
11197;SDS011;5655;48.744;9.162;2023-04-15T09:43:36;5.63;;;2.10;;
11197;SDS011;5655;48.744;9.162;2023-04-15T09:46:05;4.88;;;2.05;;
11197;SDS011;5655;48.744;9.162;2023-04-15T09:48:31;4.05;;;1.98;;
11197;SDS011;5655;48.744;9.162;2023-04-15T09:50:56;2.97;;;1.95;;
11197;SDS011;5655;48.744;9.162;2023-04-15T09:53:22;6.28;;;2.17;;
11197;SDS011;5655;48.744;9.162;2023-04-15T09:55:52;3.42;;;1.83;;
11197;SDS011;5655;48.744;9.162;2023-04-15T09:58:23;5.80;;;2.28;;
11197;SDS011;5655;48.744;9.162;2023-04-15T10:00:51;4.07;;;2.00;;
11197;SDS011;5655;48.744;9.162;2023-04-15T10:03:22;3.58;;;2.08;;
11197;SDS011;5655;48.744;9.162;2023-04-15T10:05:50;3.38;;;2.40;;
11197;SDS011;5655;48.744;9.162;2023-04-15T10:08:20;5.28;;;2.03;;
11197;SDS011;5655;48.744;9.162;2023-04-15T10:10:47;5.28;;;2.20;;
11197;SDS011;5655;48.744;9.162;2023-04-15T10:13:13;3.35;;;2.22;;
11197;SDS011;5655;48.744;9.162;2023-04-15T10:15:48;5.40;;;2.35;;
11197;SDS011;5655;48.744;9.162;2023-04-15T10:18:20;5.57;;;2.10;;
11197;SDS011;5655;48.744;9.162;2023-04-15T10:20:49;5.38;;;2.25;;
11197;SDS011;5655;48.744;9.162;2023-04-15T10:23:15;5.22;;;2.42;;
11197;SDS011;5655;48.744;9.162;2023-04-15T10:25:42;2.28;;;2.00;;
11197;SDS011;5655;48.744;9.162;2023-04-15T10:28:08;3.10;;;1.90;;
11197;SDS011;5655;48.744;9.162;2023-04-15T10:30:33;4.10;;;1.98;;
11197;SDS011;5655;48.744;9.162;2023-04-15T10:33:00;6.00;;;2.30;;
11197;SDS011;5655;48.744;9.162;2023-04-15T10:35:28;3.95;;;2.20;;
11197;SDS011;5655;48.744;9.162;2023-04-15T10:37:56;3.47;;;1.95;;
11197;SDS011;5655;48.744;9.162;2023-04-15T10:42:55;4.07;;;2.38;;
11197;SDS011;5655;48.744;9.162;2023-04-15T10:45:21;3.20;;;2.50;;
11197;SDS011;5655;48.744;9.162;2023-04-15T10:47:54;5.50;;;2.22;;
11197;SDS011;5655;48.744;9.162;2023-04-15T10:50:21;5.05;;;2.38;;
11197;SDS011;5655;48.744;9.162;2023-04-15T10:52:48;4.63;;;2.22;;
11197;SDS011;5655;48.744;9.162;2023-04-15T10:55:20;4.50;;;2.17;;
11197;SDS011;5655;48.744;9.162;2023-04-15T10:57:50;3.65;;;2.50;;
11197;SDS011;5655;48.744;9.162;2023-04-15T11:00:17;4.55;;;2.30;;
11197;SDS011;5655;48.744;9.162;2023-04-15T11:05:09;6.00;;;2.38;;
11197;SDS011;5655;48.744;9.162;2023-04-15T11:12:45;6.63;;;2.35;;
11197;SDS011;5655;48.744;9.162;2023-04-15T11:15:28;5.38;;;2.80;;
11197;SDS011;5655;48.744;9.162;2023-04-15T11:18:17;4.90;;;2.35;;
11197;SDS011;5655;48.744;9.162;2023-04-15T11:20:48;6.00;;;2.80;;
11197;SDS011;5655;48.744;9.162;2023-04-15T11:23:15;5.30;;;2.40;;
11197;SDS011;5655;48.744;9.162;2023-04-15T11:25:51;7.07;;;2.63;;
11197;SDS011;5655;48.744;9.162;2023-04-15T11:28:19;5.45;;;2.88;;
11197;SDS011;5655;48.744;9.162;2023-04-15T11:30:44;8.80;;;3.08;;
11197;SDS011;5655;48.744;9.162;2023-04-15T11:33:10;5.00;;;2.45;;
11197;SDS011;5655;48.744;9.162;2023-04-15T11:35:36;5.00;;;2.47;;
11197;SDS011;5655;48.744;9.162;2023-04-15T11:38:05;6.18;;;2.58;;
11197;SDS011;5655;48.744;9.162;2023-04-15T11:40:33;2.92;;;2.13;;
11197;SDS011;5655;48.744;9.162;2023-04-15T11:43:06;5.43;;;2.58;;
11197;SDS011;5655;48.744;9.162;2023-04-15T11:45:33;4.20;;;2.10;;
11197;SDS011;5655;48.744;9.162;2023-04-15T11:48:09;5.15;;;2.80;;
11197;SDS011;5655;48.744;9.162;2023-04-15T11:50:36;5.80;;;2.90;;
11197;SDS011;5655;48.744;9.162;2023-04-15T11:53:05;3.65;;;3.00;;
11197;SDS011;5655;48.744;9.162;2023-04-15T11:55:41;6.63;;;2.70;;
11197;SDS011;5655;48.744;9.162;2023-04-15T12:00:58;5.15;;;3.15;;
11197;SDS011;5655;48.744;9.162;2023-04-15T12:16:43;7.05;;;3.00;;
11197;SDS011;5655;48.744;9.162;2023-04-15T12:19:11;6.15;;;3.42;;
11197;SDS011;5655;48.744;9.162;2023-04-15T12:21:39;5.97;;;3.45;;
11197;SDS011;5655;48.744;9.162;2023-04-15T12:24:06;5.07;;;3.08;;
11197;SDS011;5655;48.744;9.162;2023-04-15T12:26:34;6.10;;;3.00;;
11197;SDS011;5655;48.744;9.162;2023-04-15T12:29:16;5.55;;;3.33;;
11197;SDS011;5655;48.744;9.162;2023-04-15T12:31:46;5.78;;;3.30;;
11197;SDS011;5655;48.744;9.162;2023-04-15T12:34:16;6.65;;;2.90;;
11197;SDS011;5655;48.744;9.162;2023-04-15T12:36:43;5.68;;;2.92;;
11197;SDS011;5655;48.744;9.162;2023-04-15T12:39:08;5.07;;;2.47;;
11197;SDS011;5655;48.744;9.162;2023-04-15T12:41:34;7.05;;;2.67;;
11197;SDS011;5655;48.744;9.162;2023-04-15T12:43:59;4.53;;;2.80;;
11197;SDS011;5655;48.744;9.162;2023-04-15T12:46:25;5.45;;;2.78;;
11197;SDS011;5655;48.744;9.162;2023-04-15T12:48:51;4.75;;;2.85;;
11197;SDS011;5655;48.744;9.162;2023-04-15T12:51:17;3.35;;;2.72;;
11197;SDS011;5655;48.744;9.162;2023-04-15T12:53:43;6.13;;;3.05;;
11197;SDS011;5655;48.744;9.162;2023-04-15T12:56:09;5.03;;;3.28;;
11197;SDS011;5655;48.744;9.162;2023-04-15T12:58:34;5.20;;;3.47;;
11197;SDS011;5655;48.744;9.162;2023-04-15T13:01:00;3.50;;;3.17;;
11197;SDS011;5655;48.744;9.162;2023-04-15T13:03:25;5.55;;;3.25;;
11197;SDS011;5655;48.744;9.162;2023-04-15T13:05:50;3.70;;;2.88;;
11197;SDS011;5655;48.744;9.162;2023-04-15T13:08:16;6.43;;;3.10;;
11197;SDS011;5655;48.744;9.162;2023-04-15T13:10:41;5.95;;;3.15;;
11197;SDS011;5655;48.744;9.162;2023-04-15T13:13:07;6.20;;;3.42;;
11197;SDS011;5655;48.744;9.162;2023-04-15T13:15:32;5.35;;;3.35;;
11197;SDS011;5655;48.744;9.162;2023-04-15T13:17:58;6.75;;;3.20;;
11197;SDS011;5655;48.744;9.162;2023-04-15T13:20:24;4.50;;;2.83;;
11197;SDS011;5655;48.744;9.162;2023-04-15T13:22:51;3.95;;;2.67;;
11197;SDS011;5655;48.744;9.162;2023-04-15T13:25:16;3.85;;;2.55;;
11197;SDS011;5655;48.744;9.162;2023-04-15T13:27:42;5.55;;;3.17;;
11197;SDS011;5655;48.744;9.162;2023-04-15T13:30:07;3.35;;;2.50;;
11197;SDS011;5655;48.744;9.162;2023-04-15T13:32:33;4.97;;;2.85;;
11197;SDS011;5655;48.744;9.162;2023-04-15T13:34:58;3.15;;;2.30;;
11197;SDS011;5655;48.744;9.162;2023-04-15T13:37:27;2.55;;;2.28;;
11197;SDS011;5655;48.744;9.162;2023-04-15T13:39:53;3.55;;;2.53;;
11197;SDS011;5655;48.744;9.162;2023-04-15T13:42:20;3.90;;;2.33;;
11197;SDS011;5655;48.744;9.162;2023-04-15T13:44:45;3.92;;;2.08;;
11197;SDS011;5655;48.744;9.162;2023-04-15T13:47:10;4.38;;;1.77;;
11197;SDS011;5655;48.744;9.162;2023-04-15T13:49:37;4.72;;;1.80;;
11197;SDS011;5655;48.744;9.162;2023-04-15T13:52:02;2.85;;;1.75;;
11197;SDS011;5655;48.744;9.162;2023-04-15T13:54:27;2.80;;;1.55;;
11197;SDS011;5655;48.744;9.162;2023-04-15T13:56:53;5.00;;;1.52;;
11197;SDS011;5655;48.744;9.162;2023-04-15T13:59:20;3.80;;;1.75;;
11197;SDS011;5655;48.744;9.162;2023-04-15T14:01:45;1.60;;;1.15;;
11197;SDS011;5655;48.744;9.162;2023-04-15T14:04:10;3.60;;;1.60;;
11197;SDS011;5655;48.744;9.162;2023-04-15T14:06:36;3.08;;;1.77;;
11197;SDS011;5655;48.744;9.162;2023-04-15T14:09:01;2.85;;;1.40;;
11197;SDS011;5655;48.744;9.162;2023-04-15T14:11:26;2.78;;;1.25;;
11197;SDS011;5655;48.744;9.162;2023-04-15T14:13:52;1.90;;;1.42;;
11197;SDS011;5655;48.744;9.162;2023-04-15T14:16:17;3.65;;;1.52;;
11197;SDS011;5655;48.744;9.162;2023-04-15T14:18:43;3.05;;;1.30;;
11197;SDS011;5655;48.744;9.162;2023-04-15T14:21:08;4.50;;;1.80;;
11197;SDS011;5655;48.744;9.162;2023-04-15T14:23:33;3.35;;;1.10;;
11197;SDS011;5655;48.744;9.162;2023-04-15T14:25:59;5.50;;;1.33;;
11197;SDS011;5655;48.744;9.162;2023-04-15T14:28:24;2.85;;;1.45;;
11197;SDS011;5655;48.744;9.162;2023-04-15T14:30:49;2.28;;;1.00;;
11197;SDS011;5655;48.744;9.162;2023-04-15T14:33:15;2.35;;;1.00;;
11197;SDS011;5655;48.744;9.162;2023-04-15T14:35:40;6.55;;;1.40;;
11197;SDS011;5655;48.744;9.162;2023-04-15T14:38:05;1.33;;;0.98;;
11197;SDS011;5655;48.744;9.162;2023-04-15T14:40:34;1.90;;;1.10;;
11197;SDS011;5655;48.744;9.162;2023-04-15T14:42:59;3.55;;;1.30;;
11197;SDS011;5655;48.744;9.162;2023-04-15T14:45:25;1.50;;;1.20;;
11197;SDS011;5655;48.744;9.162;2023-04-15T14:47:50;4.47;;;2.05;;
11197;SDS011;5655;48.744;9.162;2023-04-15T14:50:17;2.20;;;1.15;;
11197;SDS011;5655;48.744;9.162;2023-04-15T14:52:42;2.28;;;1.15;;
11197;SDS011;5655;48.744;9.162;2023-04-15T14:55:08;2.15;;;1.40;;
11197;SDS011;5655;48.744;9.162;2023-04-15T14:57:35;1.88;;;1.17;;
11197;SDS011;5655;48.744;9.162;2023-04-15T15:00:02;3.22;;;1.73;;
11197;SDS011;5655;48.744;9.162;2023-04-15T15:02:28;1.70;;;1.52;;
11197;SDS011;5655;48.744;9.162;2023-04-15T15:04:53;4.40;;;1.92;;
11197;SDS011;5655;48.744;9.162;2023-04-15T15:07:21;3.13;;;1.42;;
11197;SDS011;5655;48.744;9.162;2023-04-15T15:09:47;2.35;;;1.50;;
11197;SDS011;5655;48.744;9.162;2023-04-15T15:12:12;3.90;;;1.70;;
11197;SDS011;5655;48.744;9.162;2023-04-15T15:14:37;3.10;;;1.83;;
11197;SDS011;5655;48.744;9.162;2023-04-15T15:17:03;3.92;;;1.50;;
11197;SDS011;5655;48.744;9.162;2023-04-15T15:19:28;2.38;;;1.67;;
11197;SDS011;5655;48.744;9.162;2023-04-15T15:21:53;2.40;;;1.27;;
11197;SDS011;5655;48.744;9.162;2023-04-15T15:24:19;4.10;;;1.73;;